createdAt,value
2023-05-20T00:00:50.477Z,13.62
2023-05-20T00:03:38.256Z,13.61
2023-05-20T00:06:26.124Z,13.64
2023-05-20T00:09:13.843Z,13.63
2023-05-20T00:12:01.486Z,13.64
2023-05-20T00:14:49.136Z,13.62
2023-05-20T00:17:38.123Z,13.66
2023-05-20T00:20:25.639Z,13.68
2023-05-20T00:23:13.187Z,13.74
2023-05-20T00:26:01.012Z,13.74
2023-05-20T00:28:48.670Z,13.80
2023-05-20T00:31:36.608Z,13.79
2023-05-20T00:34:25.466Z,13.82
2023-05-20T00:37:13.221Z,13.80
2023-05-20T00:40:01.061Z,13.83
2023-05-20T00:42:48.544Z,13.83
2023-05-20T00:45:36.323Z,13.80
2023-05-20T00:48:24.099Z,13.79
2023-05-20T00:51:17.944Z,13.80
2023-05-20T00:54:05.532Z,13.80
2023-05-20T00:56:53.413Z,13.83
2023-05-20T00:59:44.072Z,13.84
2023-05-20T01:02:32.729Z,13.87
2023-05-20T01:05:20.980Z,13.87
2023-05-20T01:08:10.255Z,13.90
2023-05-20T01:11:05.689Z,13.90
2023-05-20T01:14:02.374Z,13.92
2023-05-20T01:16:53.845Z,13.94
2023-05-20T01:19:44.398Z,13.93
2023-05-20T01:22:33.354Z,13.95
2023-05-20T01:25:21.196Z,13.95
2023-05-20T01:28:09.503Z,13.93
2023-05-20T01:31:02.628Z,13.94
2023-05-20T01:33:58.147Z,13.94
2023-05-20T01:36:48.037Z,13.93
2023-05-20T01:39:41.581Z,13.92
2023-05-20T01:42:30.536Z,13.92
2023-05-20T01:45:18.133Z,13.90
2023-05-20T01:48:06.731Z,13.93
2023-05-20T01:50:54.482Z,13.96
2023-05-20T01:53:41.976Z,13.95
2023-05-20T01:56:31.700Z,13.95
2023-05-20T01:59:19.538Z,13.94
2023-05-20T02:02:07.022Z,13.95
2023-05-20T02:04:56.129Z,13.95
2023-05-20T02:07:43.685Z,13.94
2023-05-20T02:10:31.065Z,13.92
2023-05-20T02:13:20.462Z,13.87
2023-05-20T02:16:08.349Z,13.87
2023-05-20T02:18:58.514Z,13.85
2023-05-20T02:21:48.988Z,13.86
2023-05-20T02:24:36.797Z,13.86
2023-05-20T02:27:24.169Z,13.83
2023-05-20T02:30:13.571Z,13.80
2023-05-20T02:33:01.352Z,13.78
2023-05-20T02:35:49.081Z,13.75
2023-05-20T02:38:36.494Z,13.70
2023-05-20T02:41:24.340Z,13.68
2023-05-20T02:44:12.240Z,13.62
2023-05-20T02:47:01.219Z,13.59
2023-05-20T02:49:48.808Z,13.51
2023-05-20T02:52:36.393Z,13.46
2023-05-20T02:55:24.737Z,13.43
2023-05-20T02:58:13.341Z,13.37
2023-05-20T03:01:01.154Z,13.35
2023-05-20T03:03:50.793Z,13.32
2023-05-20T03:06:38.332Z,13.29
2023-05-20T03:09:26.194Z,13.22
2023-05-20T03:12:13.872Z,13.18
2023-05-20T03:15:01.382Z,13.18
2023-05-20T03:17:49.209Z,13.14
2023-05-20T03:20:38.490Z,13.09
2023-05-20T03:23:26.078Z,13.03
2023-05-20T03:26:13.536Z,12.98
2023-05-20T03:29:01.171Z,13.01
2023-05-20T03:31:48.893Z,13.00
2023-05-20T03:34:36.739Z,12.98
2023-05-20T03:37:25.807Z,13.00
2023-05-20T03:40:14.047Z,12.97
2023-05-20T03:43:01.585Z,12.97
2023-05-20T03:45:49.134Z,12.98
2023-05-20T03:48:36.817Z,12.93
2023-05-20T03:51:24.319Z,12.90
2023-05-20T03:54:13.486Z,12.91
2023-05-20T03:57:02.988Z,12.88
2023-05-20T03:59:50.377Z,12.86
2023-05-20T04:02:38.595Z,12.87
2023-05-20T04:05:26.636Z,12.93
2023-05-20T04:08:14.626Z,12.93
2023-05-20T04:11:04.071Z,12.95
2023-05-20T04:13:51.573Z,12.98
2023-05-20T04:16:39.486Z,12.98
2023-05-20T04:19:28.522Z,13.00
2023-05-20T04:22:16.133Z,12.98
2023-05-20T04:25:05.294Z,12.98
2023-05-20T04:27:55.099Z,13.01
2023-05-20T04:30:42.616Z,12.99
2023-05-20T04:33:30.110Z,13.03
2023-05-20T04:36:17.712Z,13.03
2023-05-20T04:39:06.223Z,13.07
2023-05-20T04:41:55.006Z,13.11
2023-05-20T04:44:46.109Z,13.11
2023-05-20T04:47:39.152Z,13.12
2023-05-20T04:50:27.099Z,13.14
2023-05-20T04:53:14.553Z,13.20
2023-05-20T04:56:03.226Z,13.21
2023-05-20T04:58:51.815Z,13.31
2023-05-20T05:01:41.268Z,13.33
2023-05-20T05:04:28.971Z,13.38
2023-05-20T05:07:16.661Z,13.48
2023-05-20T05:10:04.537Z,13.53
2023-05-20T05:12:52.402Z,13.69
2023-05-20T05:15:40.015Z,13.76
2023-05-20T05:18:29.054Z,13.89
2023-05-20T05:21:16.569Z,14.01
2023-05-20T05:24:03.975Z,14.09
2023-05-20T05:26:55.088Z,14.22
2023-05-20T05:29:42.626Z,14.24
2023-05-20T05:32:30.259Z,14.30
2023-05-20T05:35:19.501Z,14.43
2023-05-20T05:38:07.306Z,14.52
2023-05-20T05:40:54.929Z,14.65
2023-05-20T05:43:42.524Z,14.79
2023-05-20T05:46:30.031Z,14.87
2023-05-20T05:49:17.847Z,14.95
2023-05-20T05:52:07.124Z,14.99
2023-05-20T05:54:55.484Z,15.06
2023-05-20T05:57:43.246Z,15.18
2023-05-20T06:00:30.889Z,15.27
2023-05-20T06:03:18.425Z,15.38
2023-05-20T06:06:06.476Z,15.52
2023-05-20T06:08:55.771Z,15.65
2023-05-20T06:11:44.390Z,15.73
2023-05-20T06:14:32.589Z,15.85
2023-05-20T06:17:20.185Z,16.00
2023-05-20T06:20:09.748Z,16.18
2023-05-20T06:22:57.451Z,16.32
2023-05-20T06:25:46.438Z,16.50
2023-05-20T06:28:34.063Z,16.56
2023-05-20T06:31:21.819Z,16.63
2023-05-20T06:34:09.693Z,16.66
2023-05-20T06:36:57.597Z,16.92
2023-05-20T06:39:46.801Z,17.06
2023-05-20T06:42:35.774Z,17.24
2023-05-20T06:45:23.591Z,17.37
2023-05-20T06:48:11.535Z,17.59
2023-05-20T06:50:59.356Z,17.90
2023-05-20T06:53:47.340Z,18.05
2023-05-20T06:56:35.364Z,18.24
2023-05-20T06:59:24.040Z,18.64
2023-05-20T07:02:12.622Z,18.74
2023-05-20T07:04:59.998Z,18.80
2023-05-20T07:07:47.608Z,19.08
2023-05-20T07:10:35.829Z,19.35
2023-05-20T07:13:24.261Z,19.23
2023-05-20T07:16:13.172Z,19.32
2023-05-20T07:19:00.837Z,19.72
2023-05-20T07:21:49.707Z,19.96
2023-05-20T07:24:37.765Z,20.33
2023-05-20T07:27:25.232Z,20.54
2023-05-20T07:30:12.969Z,20.72
2023-05-20T07:33:02.230Z,20.85
2023-05-20T07:35:50.010Z,20.58
2023-05-20T07:38:38.507Z,20.77
2023-05-20T07:41:27.309Z,20.91
2023-05-20T07:44:21.401Z,21.09
2023-05-20T07:47:09.079Z,21.57
2023-05-20T07:49:57.822Z,21.59
2023-05-20T07:52:56.176Z,21.55
2023-05-20T07:55:44.652Z,21.56
2023-05-20T07:58:33.150Z,21.84
2023-05-20T08:01:21.208Z,22.21
2023-05-20T08:04:08.798Z,22.04
2023-05-20T08:06:57.906Z,22.15
2023-05-20T08:09:45.558Z,22.42
2023-05-20T08:12:33.073Z,22.70
2023-05-20T08:15:20.858Z,22.72
2023-05-20T08:18:08.701Z,22.76
2023-05-20T08:20:56.360Z,22.95
2023-05-20T08:23:45.887Z,23.26
2023-05-20T08:26:33.528Z,23.56
2023-05-20T08:29:21.020Z,23.75
2023-05-20T08:32:09.120Z,23.92
2023-05-20T08:34:56.886Z,23.94
2023-05-20T08:37:44.424Z,24.22
2023-05-20T08:40:35.618Z,24.47
2023-05-20T08:43:24.498Z,24.71
2023-05-20T08:46:13.126Z,24.84
2023-05-20T08:49:01.098Z,25.00
2023-05-20T08:51:49.230Z,24.60
2023-05-20T08:54:47.101Z,25.09
2023-05-20T08:57:37.775Z,25.56
2023-05-20T09:00:28.905Z,25.63
2023-05-20T09:03:16.625Z,25.68
2023-05-20T09:06:09.990Z,25.79
2023-05-20T09:08:57.773Z,26.24
2023-05-20T09:11:45.803Z,26.38
2023-05-20T09:14:35.189Z,26.27
2023-05-20T09:17:24.222Z,25.91
2023-05-20T09:20:14.124Z,26.29
2023-05-20T09:23:03.289Z,26.39
2023-05-20T09:25:52.931Z,26.49
2023-05-20T09:28:41.063Z,26.36
2023-05-20T09:31:33.867Z,26.15
2023-05-20T09:34:22.493Z,25.87
2023-05-20T09:37:11.250Z,26.49
2023-05-20T09:40:05.776Z,26.43
2023-05-20T09:42:57.720Z,26.32
2023-05-20T09:45:46.700Z,26.56
2023-05-20T09:48:38.191Z,26.67
2023-05-20T09:51:26.858Z,26.87
2023-05-20T09:54:16.532Z,26.46
2023-05-20T09:57:08.325Z,26.11
2023-05-20T09:59:55.958Z,26.15
2023-05-20T10:02:46.653Z,26.24
2023-05-20T10:05:43.081Z,26.36
2023-05-20T10:09:03.853Z,25.90
2023-05-20T10:12:06.280Z,26.05
2023-05-20T10:15:09.894Z,26.51
2023-05-20T10:18:16.115Z,26.76
2023-05-20T10:21:15.921Z,25.75
2023-05-20T10:24:11.713Z,26.07
2023-05-20T10:27:02.810Z,25.96
2023-05-20T10:29:53.241Z,25.76
2023-05-20T10:32:54.138Z,25.63
2023-05-20T10:35:51.433Z,25.81
2023-05-20T10:38:52.840Z,25.89
2023-05-20T10:41:40.286Z,26.01
2023-05-20T10:44:30.128Z,26.34
2023-05-20T10:47:25.516Z,26.64
2023-05-20T10:50:29.825Z,26.61
2023-05-20T10:53:29.771Z,26.70
2023-05-20T10:56:24.696Z,27.25
2023-05-20T10:59:13.084Z,27.45
2023-05-20T11:02:02.976Z,27.30
2023-05-20T11:04:51.135Z,27.02
2023-05-20T11:07:38.665Z,26.84
2023-05-20T11:10:26.177Z,27.11
2023-05-20T11:13:16.068Z,27.59
2023-05-20T11:16:04.729Z,28.14
2023-05-20T11:18:52.318Z,28.19
2023-05-20T11:21:45.277Z,27.89
2023-05-20T11:24:32.891Z,28.32
2023-05-20T11:27:20.651Z,28.53
2023-05-20T11:30:12.161Z,28.77
2023-05-20T11:33:02.190Z,28.97
2023-05-20T11:35:53.027Z,29.12
2023-05-20T11:38:42.355Z,28.67
2023-05-20T11:41:30.430Z,28.69
2023-05-20T11:44:21.087Z,28.04
2023-05-20T11:47:10.242Z,28.26
2023-05-20T11:49:58.364Z,28.46
2023-05-20T11:52:45.904Z,28.84
2023-05-20T11:55:34.437Z,28.92
2023-05-20T11:58:25.022Z,29.04
2023-05-20T12:01:21.702Z,29.22
2023-05-20T12:04:13.309Z,28.12
2023-05-20T12:07:01.118Z,27.64
2023-05-20T12:09:49.064Z,28.44
2023-05-20T12:12:37.332Z,28.36
2023-05-20T12:15:25.675Z,28.37
2023-05-20T12:18:13.515Z,28.84
2023-05-20T12:21:02.977Z,28.94
2023-05-20T12:23:51.111Z,28.99
2023-05-20T12:26:38.838Z,29.32
2023-05-20T12:29:28.522Z,29.19
2023-05-20T12:32:16.438Z,28.87
2023-05-20T12:35:04.117Z,28.78
2023-05-20T12:37:53.295Z,29.03
2023-05-20T12:40:40.888Z,29.22
2023-05-20T12:43:29.025Z,29.74
2023-05-20T12:46:16.651Z,29.46
2023-05-20T12:49:04.493Z,29.26
2023-05-20T12:51:51.907Z,28.93
2023-05-20T12:54:40.872Z,29.20
2023-05-20T12:57:28.909Z,28.93
2023-05-20T13:00:17.996Z,29.13
2023-05-20T13:03:05.782Z,28.50
2023-05-20T13:05:53.660Z,28.49
2023-05-20T13:08:41.229Z,28.17
2023-05-20T13:11:30.370Z,28.60
2023-05-20T13:14:18.088Z,28.70
2023-05-20T13:17:07.370Z,29.03
2023-05-20T13:19:54.913Z,28.92
2023-05-20T13:22:42.701Z,28.30
2023-05-20T13:25:31.837Z,28.21
2023-05-20T13:28:21.478Z,27.92
2023-05-20T13:31:09.241Z,28.07
2023-05-20T13:33:59.184Z,28.08
2023-05-20T13:36:47.836Z,28.59
2023-05-20T13:39:36.415Z,28.46
2023-05-20T13:42:23.831Z,28.52
2023-05-20T13:45:13.394Z,28.21
2023-05-20T13:48:01.082Z,27.35
2023-05-20T13:50:49.337Z,27.17
2023-05-20T13:53:37.289Z,27.50
2023-05-20T13:56:25.172Z,27.76
2023-05-20T13:59:12.762Z,27.87
2023-05-20T14:02:02.292Z,28.13
2023-05-20T14:04:50.110Z,28.02
2023-05-20T14:07:37.898Z,27.71
2023-05-20T14:10:25.764Z,27.39
2023-05-20T14:13:13.170Z,27.52
2023-05-20T14:16:00.945Z,27.54
2023-05-20T14:18:49.799Z,27.88
2023-05-20T14:21:37.661Z,27.98
2023-05-20T14:24:25.452Z,28.07
2023-05-20T14:27:14.116Z,27.95
2023-05-20T14:30:01.541Z,27.77
2023-05-20T14:32:49.275Z,28.00
2023-05-20T14:35:38.454Z,28.14
2023-05-20T14:38:27.490Z,27.92
2023-05-20T14:41:15.213Z,27.50
2023-05-20T14:44:02.689Z,27.51
2023-05-20T14:46:50.190Z,27.59
2023-05-20T14:49:39.204Z,27.25
2023-05-20T14:52:28.171Z,27.27
2023-05-20T14:55:15.898Z,27.08
2023-05-20T14:58:03.889Z,27.07
2023-05-20T15:00:51.742Z,26.78
2023-05-20T15:03:39.332Z,26.84
2023-05-20T15:06:27.484Z,26.85
2023-05-20T15:09:17.018Z,27.12
2023-05-20T15:12:05.098Z,27.38
2023-05-20T15:14:53.000Z,27.78
2023-05-20T15:17:40.561Z,27.78
2023-05-20T15:20:28.530Z,28.35
2023-05-20T15:23:17.128Z,28.89
2023-05-20T15:26:06.611Z,29.37
2023-05-20T15:28:53.885Z,29.29
2023-05-20T15:31:41.465Z,29.34
2023-05-20T15:34:28.970Z,29.86
2023-05-20T15:37:17.136Z,30.30
2023-05-20T15:40:05.439Z,30.32
2023-05-20T15:42:54.714Z,29.87
2023-05-20T15:45:42.570Z,29.66
2023-05-20T15:48:30.173Z,30.00
2023-05-20T15:51:17.938Z,30.11
2023-05-20T15:54:05.658Z,30.29
2023-05-20T15:56:53.091Z,30.57
2023-05-20T15:59:41.992Z,30.38
2023-05-20T16:02:31.468Z,30.14
2023-05-20T16:05:20.195Z,29.97
2023-05-20T16:08:07.940Z,29.59
2023-05-20T16:10:56.330Z,29.30
2023-05-20T16:13:43.854Z,29.71
2023-05-20T16:16:36.210Z,29.75
2023-05-20T16:19:24.225Z,29.34
2023-05-20T16:22:11.808Z,28.72
2023-05-20T16:24:59.366Z,28.99
2023-05-20T16:27:46.872Z,29.13
2023-05-20T16:30:36.096Z,28.69
2023-05-20T16:33:25.377Z,28.68
2023-05-20T16:36:13.225Z,28.13
2023-05-20T16:39:01.360Z,28.05
2023-05-20T16:41:49.124Z,27.91
2023-05-20T16:44:39.037Z,27.82
2023-05-20T16:47:26.555Z,27.52
2023-05-20T16:50:15.489Z,27.11
2023-05-20T16:53:03.088Z,26.74
2023-05-20T16:55:50.634Z,26.64
2023-05-20T16:58:38.109Z,26.50
2023-05-20T17:01:25.932Z,26.58
2023-05-20T17:04:13.870Z,26.49
2023-05-20T17:07:03.024Z,26.52
2023-05-20T17:09:50.526Z,26.59
2023-05-20T17:12:38.137Z,26.62
2023-05-20T17:15:25.771Z,26.62
2023-05-20T17:18:13.347Z,26.50
2023-05-20T17:21:01.253Z,26.37
2023-05-20T17:23:50.121Z,26.26
2023-05-20T17:26:37.958Z,25.89
2023-05-20T17:29:25.701Z,25.91
2023-05-20T17:32:13.249Z,25.93
2023-05-20T17:35:00.898Z,25.87
2023-05-20T17:37:48.422Z,25.78
2023-05-20T17:40:37.769Z,25.62
2023-05-20T17:43:26.217Z,25.56
2023-05-20T17:46:14.381Z,25.46
2023-05-20T17:49:02.330Z,25.30
2023-05-20T17:51:49.945Z,25.20
2023-05-20T17:54:37.525Z,25.00
2023-05-20T17:57:26.878Z,24.71
2023-05-20T18:00:15.619Z,24.77
2023-05-20T18:03:03.097Z,24.56
2023-05-20T18:05:51.192Z,24.36
2023-05-20T18:08:42.440Z,24.27
2023-05-20T18:11:31.753Z,24.10
2023-05-20T18:14:22.799Z,24.01
2023-05-20T18:17:10.587Z,24.08
2023-05-20T18:19:59.027Z,24.04
2023-05-20T18:22:46.893Z,23.89
2023-05-20T18:25:35.055Z,23.84
2023-05-20T18:28:25.374Z,23.75
2023-05-20T18:31:14.195Z,23.60
2023-05-20T18:34:02.948Z,23.52
2023-05-20T18:36:51.730Z,23.37
2023-05-20T18:39:39.778Z,23.31
2023-05-20T18:42:27.835Z,23.14
2023-05-20T18:45:18.714Z,23.01
2023-05-20T18:48:14.056Z,22.99
2023-05-20T18:51:03.653Z,22.81
2023-05-20T18:53:51.575Z,22.72
2023-05-20T18:56:39.110Z,22.67
2023-05-20T18:59:27.010Z,22.56
2023-05-20T19:02:17.160Z,22.44
2023-05-20T19:05:09.398Z,22.27
2023-05-20T19:07:57.285Z,22.15
2023-05-20T19:10:46.713Z,22.05
2023-05-20T19:13:35.606Z,22.05
2023-05-20T19:16:24.613Z,21.80
2023-05-20T19:19:12.715Z,21.76
2023-05-20T19:22:02.080Z,21.61
2023-05-20T19:24:49.813Z,21.51
2023-05-20T19:27:37.908Z,21.39
2023-05-20T19:30:27.902Z,21.31
2023-05-20T19:33:16.151Z,21.20
2023-05-20T19:36:04.220Z,21.11
2023-05-20T19:38:53.450Z,20.96
2023-05-20T19:41:41.055Z,20.83
2023-05-20T19:44:31.728Z,20.69
2023-05-20T19:47:21.688Z,20.67
2023-05-20T19:50:11.057Z,20.62
2023-05-20T19:53:03.009Z,20.52
2023-05-20T19:55:51.974Z,20.43
2023-05-20T19:58:39.732Z,20.36
2023-05-20T20:01:27.639Z,20.27
2023-05-20T20:04:17.090Z,20.13
2023-05-20T20:07:07.470Z,20.03
2023-05-20T20:09:57.673Z,20.02
2023-05-20T20:12:47.370Z,19.96
2023-05-20T20:15:35.948Z,19.90
2023-05-20T20:18:23.690Z,19.83
2023-05-20T20:21:11.452Z,19.82
2023-05-20T20:24:00.018Z,19.72
2023-05-20T20:26:49.245Z,19.61
2023-05-20T20:29:39.523Z,19.53
2023-05-20T20:32:27.936Z,19.47
2023-05-20T20:35:15.926Z,19.41
2023-05-20T20:38:08.491Z,19.37
2023-05-20T20:40:56.190Z,19.37
2023-05-20T20:43:45.405Z,19.39
2023-05-20T20:46:34.432Z,19.31
2023-05-20T20:49:24.751Z,19.28
2023-05-20T20:52:14.300Z,19.18
2023-05-20T20:55:05.031Z,19.23
2023-05-20T20:57:52.944Z,19.20
2023-05-20T21:00:41.209Z,19.16
2023-05-20T21:03:30.929Z,19.11
2023-05-20T21:06:18.653Z,19.08
2023-05-20T21:09:07.599Z,19.10
2023-05-20T21:11:57.058Z,19.04
2023-05-20T21:14:44.516Z,19.02
2023-05-20T21:17:32.170Z,19.04
2023-05-20T21:20:21.950Z,18.95
2023-05-20T21:23:09.716Z,18.91
2023-05-20T21:25:57.313Z,18.86
2023-05-20T21:28:44.711Z,18.81
2023-05-20T21:31:32.345Z,18.77
2023-05-20T21:34:20.048Z,18.74
2023-05-20T21:37:09.062Z,18.75
2023-05-20T21:39:56.787Z,18.70
2023-05-20T21:42:44.394Z,18.65
2023-05-20T21:45:32.212Z,18.66
2023-05-20T21:48:20.094Z,18.68
2023-05-20T21:51:07.553Z,18.65
2023-05-20T21:53:56.649Z,18.61
2023-05-20T21:56:44.765Z,18.61
2023-05-20T21:59:32.748Z,18.59
2023-05-20T22:02:20.332Z,18.55
2023-05-20T22:05:08.239Z,18.55
2023-05-20T22:07:56.096Z,18.50
2023-05-20T22:10:44.981Z,18.42
2023-05-20T22:13:33.197Z,18.38
2023-05-20T22:16:20.815Z,18.36
2023-05-20T22:19:08.431Z,18.34
2023-05-20T22:21:56.093Z,18.26
2023-05-20T22:24:43.618Z,18.25
2023-05-20T22:27:32.769Z,18.25
2023-05-20T22:30:20.584Z,18.25
2023-05-20T22:33:08.349Z,18.19
2023-05-20T22:35:56.679Z,18.14
2023-05-20T22:38:46.019Z,18.08
2023-05-20T22:41:33.826Z,18.02
2023-05-20T22:44:23.134Z,18.02
2023-05-20T22:47:10.705Z,17.98
2023-05-20T22:50:02.668Z,17.95
2023-05-20T22:52:50.051Z,17.93
2023-05-20T22:55:38.805Z,17.88
2023-05-20T22:58:26.626Z,17.84
2023-05-20T23:01:16.686Z,17.80
2023-05-20T23:04:04.888Z,17.78
2023-05-20T23:06:53.830Z,17.75
2023-05-20T23:09:42.348Z,17.72
2023-05-20T23:12:30.189Z,17.69
2023-05-20T23:15:17.995Z,17.64
2023-05-20T23:18:07.205Z,17.62
2023-05-20T23:20:55.823Z,17.60
2023-05-20T23:23:43.345Z,17.56
2023-05-20T23:26:31.467Z,17.53
2023-05-20T23:29:18.937Z,17.48
2023-05-20T23:32:07.135Z,17.46
2023-05-20T23:34:56.288Z,17.42
2023-05-20T23:37:43.889Z,17.36
2023-05-20T23:40:31.486Z,17.33
2023-05-20T23:43:19.006Z,17.30
2023-05-20T23:46:07.996Z,17.26
2023-05-20T23:48:55.862Z,17.24
2023-05-20T23:51:44.779Z,17.20
2023-05-20T23:54:34.120Z,17.17
2023-05-20T23:57:22.125Z,17.13
